Time;durP1;ratioP1;P1;durP2;ratioP2;P2;SDS_P1;SDS_P2;PMS_P1;PMS_P2;Temp;Humidity;BMP_temperature;BMP_pressure;BME280_temperature;BME280_humidity;BME280_pressure;Samples;Min_cycle;Max_cycle;Signal;HPM_P1;HPM_P2
2022/07/03 00:01:54;;;;;;;13.85;11.90;;;20.20;1.00;;;21.05;97.26;99548.88;5060210;27;129732;-75
2022/07/03 00:04:22;;;;;;;14.27;9.80;;;20.10;1.00;;;20.96;99.13;99546.47;5061372;27;121709;-74
2022/07/03 00:06:53;;;;;;;15.18;11.00;;;20.10;1.00;;;20.95;99.50;99551.19;5060460;27;121812;-76
2022/07/03 00:09:22;;;;;;;15.77;10.73;;;20.00;1.00;;;20.95;100.00;99550.38;5056212;27;129989;-74
2022/07/03 00:11:52;;;;;;;14.95;10.35;;;20.20;1.00;;;20.98;99.89;99542.13;5058294;27;130320;-75
2022/07/03 00:14:21;;;;;;;18.38;11.27;;;20.10;1.00;;;20.93;100.00;99541.72;5060842;27;121240;-74
2022/07/03 00:16:49;;;;;;;14.98;11.35;;;20.00;1.00;;;20.92;100.00;99540.91;5059909;27;119384;-74
2022/07/03 00:19:18;;;;;;;13.85;10.90;;;19.90;1.00;;;20.83;100.00;99546.75;5062679;27;129749;-76
2022/07/03 00:21:54;;;;;;;16.38;11.35;;;19.90;1.00;;;20.72;100.00;99551.34;5061541;27;128694;-73
2022/07/03 00:24:27;;;;;;;15.00;11.45;;;19.90;1.00;;;20.68;100.00;99546.97;5062196;27;119224;-75
2022/07/03 00:26:59;;;;;;;15.27;11.07;;;19.80;1.00;;;20.51;100.00;99553.88;5060652;27;119827;-74
2022/07/03 00:29:37;;;;;;;16.65;10.95;;;19.80;1.00;;;20.47;100.00;99553.81;5059286;27;130667;-74
2022/07/03 00:32:10;;;;;;;15.68;10.95;;;19.80;1.00;;;20.52;100.00;99550.75;5060649;27;129697;-74
2022/07/03 00:34:39;;;;;;;13.77;11.55;;;19.80;1.00;;;20.57;100.00;99555.91;5058717;27;120386;-73
2022/07/03 00:37:09;;;;;;;16.13;12.50;;;19.80;1.00;;;20.63;100.00;99548.88;5060445;27;119703;-72
2022/07/03 00:39:40;;;;;;;12.95;11.05;;;19.80;1.00;;;20.71;100.00;99549.78;5058966;27;130003;-73
2022/07/03 00:42:12;;;;;;;14.23;10.45;;;19.80;1.00;;;20.77;100.00;99564.00;5059648;27;130046;-73
2022/07/03 00:44:48;;;;;;;15.75;12.25;;;20.10;1.00;;;20.88;100.00;99556.66;5060161;27;120181;-74
2022/07/03 00:47:18;;;;;;;12.70;11.38;;;20.20;1.00;;;20.93;100.00;99563.78;5059301;27;119892;-73
2022/07/03 00:49:48;;;;;;;14.55;10.82;;;20.10;1.00;;;;;;5059697;27;130560;-73
2022/07/03 00:52:18;;;;;;;13.82;10.43;;;20.10;1.00;;;20.74;100.00;99568.31;5059390;27;129968;-73
2022/07/03 00:54:54;;;;;;;13.30;11.18;;;20.00;1.00;;;20.46;100.00;99558.56;5058795;27;122787;-74
2022/07/03 00:57:27;;;;;;;13.93;11.80;;;19.90;34.70;;;20.21;100.00;99561.03;5059324;27;122345;-75
2022/07/03 00:59:57;;;;;;;16.20;11.73;;;19.80;99.90;;;20.08;100.00;99549.44;5061011;27;129959;-75
2022/07/03 01:02:35;;;;;;;15.63;11.15;;;19.80;99.90;;;20.24;100.00;99562.22;5059355;27;129711;-73
2022/07/03 01:05:13;;;;;;;15.15;11.30;;;19.90;99.90;;;20.33;100.00;99556.41;5060230;27;119867;-74
2022/07/03 01:07:52;;;;;;;16.05;11.52;;;19.90;99.90;;;20.51;100.00;99559.41;5060086;27;119804;-73
2022/07/03 01:10:35;;;;;;;14.93;10.57;;;20.10;99.90;;;20.62;100.00;99558.31;5057918;27;129960;-72
2022/07/03 01:13:26;;;;;;;15.73;11.30;;;20.10;99.90;;;20.75;100.00;99558.09;5063264;27;129692;-74
2022/07/03 01:16:06;;;;;;;14.38;11.20;;;20.20;55.40;;;20.61;100.00;99550.44;5059941;27;119768;-75
2022/07/03 01:18:45;;;;;;;13.73;10.98;;;20.10;99.90;;;20.54;100.00;99553.13;5044802;27;118948;-73
2022/07/03 01:21:27;;;;;;;15.50;11.18;;;20.10;99.90;;;20.39;100.00;99561.22;5058994;27;129375;-73
2022/07/03 01:24:33;;;;;;;15.52;11.75;;;20.00;99.90;;;20.36;100.00;99553.69;5059123;27;129357;-73
2022/07/03 01:27:12;;;;;;;14.40;11.60;;;20.00;99.90;;;20.37;100.00;99554.50;5061414;27;119665;-74
2022/07/03 01:29:57;;;;;;;15.07;11.88;;;20.10;99.90;;;20.34;100.00;99560.78;5060008;27;119626;-73
2022/07/03 01:32:33;;;;;;;12.95;10.98;;;20.00;99.90;;;20.35;100.00;99560.41;5058216;27;129963;-75
2022/07/03 01:35:03;;;;;;;15.48;11.95;;;20.00;99.90;;;20.46;100.00;99558.56;5058308;27;131004;-73
2022/07/03 01:37:35;;;;;;;13.98;11.48;;;20.00;99.90;;;20.37;100.00;99549.00;5058589;27;119990;-75
2022/07/03 01:40:06;;;;;;;16.65;12.70;;;20.00;99.90;;;20.14;100.00;99557.38;5059860;27;120550;-74
2022/07/03 01:42:40;;;;;;;15.45;12.63;;;19.90;99.90;;;20.24;100.00;99559.47;5058472;27;130660;-75
2022/07/03 01:45:11;;;;;;;16.20;12.20;;;20.00;99.90;;;20.36;100.00;99570.22;5061472;27;129609;-74
2022/07/03 01:47:43;;;;;;;19.48;13.75;;;20.00;99.90;;;20.36;100.00;99563.94;5063237;27;121385;-72
2022/07/03 01:50:14;;;;;;;17.35;13.55;;;19.90;99.90;;;20.23;100.00;99566.16;5063031;27;122426;-74
2022/07/03 01:52:45;;;;;;;17.83;13.10;;;19.90;99.90;;;20.19;100.00;99559.81;5061843;27;130106;-74
2022/07/03 01:55:15;;;;;;;18.17;12.70;;;19.90;99.90;;;20.18;100.00;99563.72;5064509;27;129239;-73
2022/07/03 01:57:48;;;;;;;21.52;13.45;;;20.00;99.90;;;20.37;100.00;99569.06;5060137;27;119561;-74
2022/07/03 02:00:21;;;;;;;22.20;13.10;;;20.00;99.90;;;20.38;100.00;99556.88;5064909;27;119720;-72
2022/07/03 02:03:00;;;;;;;18.13;12.73;;;20.00;99.90;;;20.32;100.00;99563.91;5061939;27;130247;-74
2022/07/03 02:05:34;;;;;;;19.02;13.48;;;20.00;99.90;;;20.23;100.00;99552.38;5064928;27;128911;-74
2022/07/03 02:08:18;;;;;;;17.92;13.07;;;19.90;99.90;;;20.16;100.00;99555.03;5061949;27;119608;-72
2022/07/03 02:10:59;;;;;;;18.42;13.95;;;19.90;99.90;;;20.13;100.00;99547.53;5063530;27;119131;-74
2022/07/03 02:13:31;;;;;;;15.43;13.52;;;19.90;99.90;;;20.14;100.00;99546.38;5061160;27;130751;-75
2022/07/03 02:16:00;;;;;;;19.55;13.93;;;19.80;99.90;;;20.20;100.00;99544.88;5062510;27;129421;-76
2022/07/03 02:18:34;;;;;;;18.17;13.82;;;19.80;99.90;;;20.06;100.00;99539.97;5062897;27;119872;-76
2022/07/03 02:21:15;;;;;;;17.80;13.15;;;19.80;99.90;;;20.11;100.00;99543.16;5060557;27;119968;-75
2022/07/03 02:23:56;;;;;;;14.88;12.93;;;19.80;99.90;;;20.18;100.00;99536.16;5062356;27;130002;-74
2022/07/03 02:26:33;;;;;;;16.13;12.70;;;19.80;99.90;;;20.20;100.00;99537.38;5060814;27;129955;-77
2022/07/03 02:29:05;;;;;;;;;;;19.80;99.90;;;20.12;100.00;99538.47;5062838;27;119595;-77
2022/07/03 02:31:43;;;;;;;17.85;14.05;;;19.80;99.90;;;20.00;100.00;99531.22;5062315;27;119076;-72
2022/07/03 02:34:16;;;;;;;18.38;13.90;;;19.80;99.90;;;19.99;100.00;99529.66;5063661;27;129373;-76
2022/07/03 02:36:49;;;;;;;19.70;13.10;;;19.80;99.90;;;20.07;100.00;99525.81;5062224;27;129207;-74
2022/07/03 02:39:26;;;;;;;17.33;13.27;;;19.80;99.90;;;20.17;100.00;99534.59;5061112;27;122264;-77
2022/07/03 02:42:00;;;;;;;14.73;12.40;;;19.90;99.90;;;20.18;100.00;99527.91;5066677;27;122470;-75
2022/07/03 02:44:41;;;;;;;16.65;13.00;;;19.90;99.90;;;20.05;100.00;99517.13;5067894;27;130256;-76
2022/07/03 02:47:24;;;;;;;19.73;14.10;;;19.90;99.90;;;19.98;100.00;99517.06;5068359;27;129505;-74
2022/07/03 02:50:04;;;;;;;17.48;12.98;;;19.80;99.90;;;19.92;100.00;99515.78;5066981;27;119790;-71
2022/07/03 02:52:44;;;;;;;16.40;13.27;;;19.80;99.90;;;19.92;100.00;99518.56;5065293;27;119862;-75
2022/07/03 02:55:41;;;;;;;15.95;12.82;;;19.80;99.90;;;20.08;100.00;99513.63;5060958;27;129850;-75
2022/07/03 02:58:46;;;;;;;14.30;12.70;;;19.90;99.90;;;20.36;100.00;99520.63;5062314;27;130304;-76
2022/07/03 03:01:30;;;;;;;15.48;12.32;;;20.00;99.90;;;20.21;100.00;99511.44;5064672;27;119921;-78
2022/07/03 03:04:13;;;;;;;15.68;12.50;;;19.90;99.90;;;20.41;100.00;99512.03;5062089;27;120580;-77
2022/07/03 03:06:49;;;;;;;15.27;11.40;;;20.10;99.90;;;20.39;100.00;99517.13;5060216;27;130591;-76
2022/07/03 03:09:33;;;;;;;15.48;11.95;;;20.00;99.90;;;20.44;100.00;99519.56;5060327;27;129867;-76
2022/07/03 03:12:05;;;;;;;14.43;11.95;;;20.00;99.90;;;20.51;100.00;99518.03;5061590;27;119928;-77
2022/07/03 03:14:41;;;;;;;14.82;11.52;;;20.10;99.90;;;20.65;100.00;99515.44;5060450;27;119484;-74
2022/07/03 03:17:17;;;;;;;14.55;11.52;;;20.20;99.90;;;20.52;100.00;99516.84;5061150;27;130165;-74
2022/07/03 03:19:52;;;;;;;13.27;11.45;;;20.10;99.90;;;20.59;100.00;99509.44;5060360;27;129199;-75
2022/07/03 03:22:32;;;;;;;13.63;11.85;;;20.20;99.90;;;20.76;100.00;99510.81;5064507;27;117538;-74
2022/07/03 03:25:03;;;;;;;14.45;11.10;;;20.20;99.90;;;20.70;100.00;99522.59;5065524;27;119195;-75
2022/07/03 03:27:32;;;;;;;14.23;11.57;;;20.20;99.90;;;20.59;100.00;99514.97;5068033;27;130474;-76
2022/07/03 03:30:00;;;;;;;15.85;11.50;;;20.20;99.90;;;20.34;100.00;99517.47;5064188;27;129242;-75
2022/07/03 03:32:31;;;;;;;14.93;11.90;;;20.00;99.90;;;20.39;100.00;99511.59;5061399;27;122382;-76
2022/07/03 03:35:01;;;;;;;13.45;11.68;;;20.10;99.90;;;20.67;100.00;99506.81;5064619;27;121669;-76
2022/07/03 03:37:31;;;;;;;14.00;10.85;;;20.20;99.90;;;20.73;100.00;99508.81;5061112;27;129897;-74
2022/07/03 03:39:59;;;;;;;12.98;10.68;;;20.20;99.90;;;20.86;100.00;99516.81;5059331;27;129672;-75
2022/07/03 03:42:28;;;;;;;16.40;11.50;;;20.30;99.90;;;20.92;100.00;99513.31;5060035;27;120394;-76
2022/07/03 03:44:56;;;;;;;14.30;10.80;;;20.30;99.90;;;20.77;100.00;99517.13;5060266;27;119815;-76
2022/07/03 03:47:26;;;;;;;14.38;11.32;;;20.30;99.90;;;20.80;100.00;99511.66;5045598;27;129438;-73
2022/07/03 03:49:56;;;;;;;13.57;10.73;;;20.30;99.90;;;20.85;100.00;99515.22;5060915;27;130675;-77
2022/07/03 03:52:25;;;;;;;13.05;10.77;;;20.30;99.90;;;21.05;100.00;99511.09;5060510;27;119608;-76
2022/07/03 03:54:53;;;;;;;13.23;9.75;;;20.40;78.20;;;21.22;100.00;99514.34;5063160;27;120871;-74
2022/07/03 03:57:24;;;;;;;13.07;10.55;;;20.50;14.60;;;21.19;100.00;99521.41;5057566;27;130776;-74
2022/07/03 03:59:53;;;;;;;14.32;10.73;;;20.40;1.00;;;21.19;100.00;99515.88;5061771;27;129666;-76
2022/07/03 04:02:22;;;;;;;14.15;11.07;;;20.50;1.00;;;20.88;100.00;99520.78;5060408;27;119731;-73
2022/07/03 04:04:50;;;;;;;13.13;10.50;;;20.30;1.00;;;20.90;100.00;99517.66;5060727;27;119813;-75
2022/07/03 04:07:20;;;;;;;15.43;10.85;;;20.30;1.00;;;;;;5059148;27;129939;-76
2022/07/03 04:09:48;;;;;;;15.02;10.38;;;20.30;15.10;;;20.98;100.00;99522.03;5060616;27;130132;-74
2022/07/03 04:12:17;;;;;;;14.07;10.73;;;20.40;1.00;;;21.37;100.00;99518.78;5060257;27;120248;-74
2022/07/03 04:14:46;;;;;;;14.38;10.40;;;20.50;1.00;;;21.47;100.00;99520.03;5061200;27;120090;-76
2022/07/03 04:17:15;;;;;;;11.95;9.93;;;20.60;1.00;;;21.55;100.00;99527.22;5060579;27;129777;-74
2022/07/03 04:19:43;;;;;;;13.90;9.85;;;20.70;1.00;;;21.65;100.00;99520.19;5058885;27;129318;-71
2022/07/03 04:22:11;;;;;;;10.57;8.63;;;20.80;1.00;;;21.90;100.00;99523.84;5058739;27;122321;-76
2022/07/03 04:24:42;;;;;;;10.07;8.68;;;20.90;1.00;;;21.85;100.00;99518.69;5060577;27;122884;-73
2022/07/03 04:27:11;;;;;;;12.32;9.60;;;21.00;1.00;;;21.96;100.00;99517.97;5059351;27;131013;-75
2022/07/03 04:29:39;;;;;;;12.18;8.75;;;21.10;1.00;;;22.01;100.00;99514.81;5060025;27;130369;-79
2022/07/03 04:32:09;;;;;;;9.93;8.23;;;21.10;1.00;;;22.10;100.00;99517.22;5058949;27;119546;-76
2022/07/03 04:34:38;;;;;;;12.38;9.73;;;21.10;1.00;;;22.18;98.62;99514.09;5063371;27;119905;-74
2022/07/03 04:37:06;;;;;;;10.75;8.38;;;21.20;1.00;;;22.33;98.01;99519.69;5061995;27;129300;-75
2022/07/03 04:39:35;;;;;;;10.70;7.90;;;21.20;1.00;;;22.39;97.56;99523.66;5060317;27;129484;-78
2022/07/03 04:42:06;;;;;;;10.45;8.07;;;21.30;1.00;;;22.71;95.62;99520.16;5059004;27;119432;-77
2022/07/03 04:44:34;;;;;;;11.13;8.00;;;21.50;1.00;;;22.99;93.87;99527.69;5058386;27;119430;-75
2022/07/03 04:47:03;;;;;;;10.48;7.72;;;21.80;1.00;;;23.26;91.24;99524.53;5060499;27;129599;-75
2022/07/03 04:49:31;;;;;;;10.93;9.07;;;21.90;1.00;;;23.18;90.80;99529.28;5059892;27;130255;-73
2022/07/03 04:52:00;;;;;;;12.02;8.52;;;21.80;1.00;;;22.76;94.18;99536.38;5059465;27;119625;-77
2022/07/03 04:54:29;;;;;;;12.75;8.68;;;21.50;1.00;;;22.41;96.42;99533.16;5060809;27;119421;-74
2022/07/03 04:56:58;;;;;;;10.57;8.57;;;21.20;1.00;;;22.71;94.99;99534.00;5059548;27;130677;-74
2022/07/03 04:59:28;;;;;;;13.15;9.00;;;21.50;1.00;;;22.24;95.89;99533.84;5060010;27;129810;-73
2022/07/03 05:01:56;;;;;;;13.65;8.52;;;21.10;1.00;;;22.04;97.37;99539.69;5061549;27;118584;-72
2022/07/03 05:04:25;;;;;;;10.40;7.90;;;21.00;1.00;;;22.13;97.55;99538.53;5060431;27;119798;-74
2022/07/03 05:06:53;;;;;;;12.93;8.85;;;21.10;1.00;;;22.16;97.78;99538.56;5056432;27;130479;-73
2022/07/03 05:09:22;;;;;;;14.45;8.60;;;21.10;1.00;;;22.52;95.72;99533.16;5061727;27;129234;-75
2022/07/03 05:11:51;;;;;;;10.95;8.05;;;21.30;1.00;;;23.18;92.47;99543.13;5043330;27;121163;-75
2022/07/03 05:14:19;;;;;;;10.07;8.45;;;21.70;1.00;;;23.17;89.05;99543.53;5061198;27;121626;-75
2022/07/03 05:16:49;;;;;;;10.25;8.05;;;21.70;1.00;;;22.53;93.15;99540.28;5058595;27;130238;-73
2022/07/03 05:19:18;;;;;;;10.60;8.50;;;21.20;1.00;;;22.21;95.98;99540.94;5064281;27;129326;-75
2022/07/03 05:21:47;;;;;;;11.48;8.02;;;21.10;1.00;;;21.69;99.37;99549.41;5063752;27;119687;-76
2022/07/03 05:24:15;;;;;;;12.38;9.32;;;20.90;1.00;;;21.73;99.37;99543.88;5063602;27;119353;-75
2022/07/03 05:26:44;;;;;;;10.15;7.82;;;20.80;1.00;;;21.96;98.72;99540.06;5061045;27;129881;-74
2022/07/03 05:29:13;;;;;;;10.10;8.48;;;21.00;1.00;;;22.04;97.71;99541.66;5065944;27;129538;-74
2022/07/03 05:31:41;;;;;;;10.35;8.07;;;21.10;1.00;;;22.23;97.41;99538.56;5063934;27;119643;-76
2022/07/03 05:34:12;;;;;;;13.55;8.68;;;21.30;1.00;;;22.97;93.07;99547.47;5063329;27;119428;-78
2022/07/03 05:36:40;;;;;;;9.57;8.13;;;21.80;1.00;;;22.80;92.95;99553.78;5063068;27;131174;-76
2022/07/03 05:41:55;;;;;;;11.25;8.63;;;21.50;1.00;;;22.58;93.98;99564.78;5068097;27;118336;-73
2022/07/03 05:44:23;;;;;;;13.10;9.02;;;21.50;1.00;;;22.83;92.07;99560.47;5066707;27;119875;-76
2022/07/03 05:46:52;;;;;;;11.55;8.70;;;21.40;1.00;;;22.76;91.88;99561.25;5047479;27;129073;-74
2022/07/03 05:49:22;;;;;;;10.68;8.88;;;21.00;1.00;;;22.87;91.37;99553.75;5063548;27;129911;-75
2022/07/03 05:51:51;;;;;;;11.93;8.68;;;21.20;1.00;;;22.77;91.94;99552.56;5063316;27;119591;-74
2022/07/03 05:54:19;;;;;;;11.40;8.95;;;21.40;1.00;;;22.57;93.54;99545.81;5065376;27;118885;-77
2022/07/03 05:56:48;;;;;;;10.93;8.27;;;21.40;1.00;;;22.65;91.90;99552.16;5065202;27;131043;-74
2022/07/03 05:59:16;;;;;;;11.80;8.35;;;21.50;1.00;;;22.51;93.90;99552.91;5067075;27;129739;-76
2022/07/03 06:01:45;;;;;;;13.68;9.48;;;21.40;1.00;;;22.95;91.21;99555.38;5063527;27;121884;-76
2022/07/03 06:04:13;;;;;;;11.50;9.05;;;21.60;1.00;;;23.26;89.49;99552.22;5064929;27;121719;-77
2022/07/03 06:06:43;;;;;;;10.15;8.27;;;21.80;1.00;;;23.56;86.95;99557.34;5063178;27;129435;-72
2022/07/03 06:09:12;;;;;;;12.52;8.80;;;22.10;1.00;;;22.64;92.11;99561.63;5062752;27;129412;-77
2022/07/03 06:11:40;;;;;;;11.55;8.45;;;21.40;1.00;;;23.21;91.17;99561.72;5062222;27;119219;-77
2022/07/03 06:14:09;;;;;;;11.32;8.75;;;21.80;1.00;;;23.85;84.74;99573.94;5062789;27;119852;-75
2022/07/03 06:16:37;;;;;;;10.20;8.15;;;22.20;1.00;;;23.38;87.24;99559.34;5063531;27;129829;-75
2022/07/03 06:19:06;;;;;;;10.23;7.97;;;21.80;1.00;;;23.48;87.26;99561.28;5061779;27;129414;-73
2022/07/03 06:21:35;;;;;;;10.90;7.75;;;21.90;1.00;;;23.51;87.17;99568.81;5061960;27;119637;-74
2022/07/03 06:24:06;;;;;;;12.45;8.73;;;22.00;1.00;;;23.26;87.58;99564.06;5062468;27;119560;-71
2022/07/03 06:26:35;;;;;;;10.77;8.02;;;21.90;1.00;;;23.45;89.05;99567.63;5063204;27;129090;-76
2022/07/03 06:29:03;;;;;;;11.00;8.82;;;22.00;1.00;;;23.73;87.39;99560.47;5060852;27;129662;-72
2022/07/03 06:31:32;;;;;;;10.80;8.85;;;22.10;1.00;;;23.89;85.01;99571.94;5060032;27;119583;-76
2022/07/03 06:34:01;;;;;;;11.55;8.65;;;22.20;1.00;;;24.32;83.06;99566.22;5064661;27;118532;-77
2022/07/03 06:36:29;;;;;;;12.07;8.60;;;22.40;1.00;;;23.64;84.69;99567.22;5062152;27;130023;-73
2022/07/03 06:38:58;;;;;;;10.80;9.15;;;22.00;1.00;;;23.54;87.25;99570.78;5064845;27;129356;-76
2022/07/03 06:41:28;;;;;;;11.02;8.45;;;22.00;1.00;;;23.22;89.17;99574.38;5060744;27;120079;-76
2022/07/03 06:43:57;;;;;;;12.93;9.35;;;21.90;1.00;;;22.82;91.49;99575.50;5064292;27;119248;-76
2022/07/03 06:46:25;;;;;;;14.63;8.90;;;21.70;1.00;;;22.77;91.07;99587.75;5063611;27;131322;-75
2022/07/03 06:48:54;;;;;;;11.02;8.20;;;21.60;1.00;;;23.12;89.39;99575.97;5060783;27;129989;-72
2022/07/03 06:51:22;;;;;;;12.48;9.07;;;21.90;1.00;;;23.10;88.16;99577.53;5060191;27;121626;-75
2022/07/03 06:53:51;;;;;;;10.82;9.02;;;21.80;1.00;;;23.02;88.99;99578.69;5060738;27;122213;-73
2022/07/03 06:56:19;;;;;;;11.35;9.15;;;21.80;1.00;;;23.40;86.91;99568.03;5062139;27;130083;-72
2022/07/03 06:58:49;;;;;;;14.18;9.35;;;22.20;1.00;;;23.20;87.25;99570.41;5061161;27;130214;-74
2022/07/03 07:01:18;;;;;;;13.13;9.40;;;22.10;1.00;;;23.19;86.89;99564.09;5060243;27;119612;-74
2022/07/03 07:03:46;;;;;;;13.63;9.70;;;22.10;1.00;;;23.37;85.96;99557.75;5061261;27;119711;-76
2022/07/03 07:06:15;;;;;;;13.45;9.60;;;22.20;1.00;;;23.52;84.95;99560.09;5060454;27;129870;-74
2022/07/03 07:08:43;;;;;;;11.57;8.48;;;22.30;1.00;;;23.58;84.89;99557.72;5060399;27;129840;-75
2022/07/03 07:11:12;;;;;;;12.98;9.75;;;22.40;1.00;;;23.53;84.84;99555.38;5061369;27;119564;-74
2022/07/03 07:13:41;;;;;;;15.75;9.05;;;22.30;99.90;;;23.73;81.14;99552.94;5061672;27;120067;-72
2022/07/03 07:16:11;;;;;;;17.58;9.18;;;22.30;99.90;;;23.67;82.79;99560.88;5042354;27;128832;-74
2022/07/03 07:18:41;;;;;;;13.75;9.25;;;22.40;99.90;;;23.74;83.76;99554.53;5040341;27;129963;-72
2022/07/03 07:21:11;;;;;;;11.15;8.35;;;22.50;99.90;;;24.38;81.54;99561.81;5040877;27;120031;-74
2022/07/03 07:23:40;;;;;;;11.68;8.98;;;23.00;99.90;;;23.93;80.76;99560.84;5043088;27;118546;-75
2022/07/03 07:26:08;;;;;;;12.70;8.68;;;22.50;99.90;;;24.96;77.63;99557.94;5039142;27;130725;-72
2022/07/03 07:28:37;;;;;;;13.02;7.82;;;23.20;99.90;;;25.17;75.64;99557.00;5039281;27;129780;-76
2022/07/03 07:31:05;;;;;;;10.73;8.55;;;23.40;99.90;;;24.60;78.10;99550.66;5040554;27;119563;-73
2022/07/03 07:33:35;;;;;;;11.98;8.57;;;23.00;99.90;;;24.40;79.16;99551.13;5041479;27;119464;-73
2022/07/03 07:36:04;;;;;;;10.45;8.63;;;23.00;99.90;;;24.71;78.41;99565.25;5041753;27;130328;-77
2022/07/03 07:38:34;;;;;;;11.30;8.35;;;23.10;99.90;;;24.71;77.88;99554.16;5041753;27;129536;-77
2022/07/03 07:41:03;;;;;;;12.63;8.18;;;23.10;99.90;;;24.28;77.90;99559.91;5036985;27;122473;-72
2022/07/03 07:43:32;;;;;;;12.07;9.00;;;22.70;99.90;;;24.63;78.81;99562.94;5041240;27;121869;-74
2022/07/03 07:46:00;;;;;;;10.45;8.27;;;23.10;99.90;;;24.87;78.00;99552.84;5041050;27;129916;-75
2022/07/03 07:48:29;;;;;;;11.00;8.98;;;23.30;99.90;;;25.21;75.76;99549.41;5040533;27;129441;-75
2022/07/03 07:50:59;;;;;;;12.30;8.93;;;23.60;99.90;;;25.35;75.01;99557.63;5025327;27;119242;-75
2022/07/03 07:53:28;;;;;;;11.80;9.07;;;23.30;99.90;;;24.69;76.63;99553.75;5038545;27;119336;-74
2022/07/03 07:55:56;;;;;;;12.80;7.90;;;23.00;99.90;;;24.61;77.72;99560.56;5039818;27;130039;-73
2022/07/03 07:58:25;;;;;;;13.38;8.60;;;23.10;99.90;;;25.15;75.11;99553.81;5043125;27;130831;-75
2022/07/03 08:06:25;;;;;;;11.17;9.23;;;23.30;99.90;;;24.84;75.08;99556.44;5059403;27;130148;-72
2022/07/03 08:08:54;;;;;;;10.65;8.52;;;23.00;99.90;;;24.89;77.14;99554.03;5060698;27;129682;-74
2022/07/03 08:11:22;;;;;;;14.48;8.45;;;23.50;99.90;;;25.23;75.90;99555.38;5060445;27;120102;-76
2022/07/03 08:13:51;;;;;;;9.60;7.57;;;23.70;99.90;;;25.79;73.18;99558.81;5061031;27;119505;-74
2022/07/03 08:16:19;;;;;;;11.05;7.88;;;24.30;99.90;;;25.95;70.90;99560.22;5059124;27;130539;-74
2022/07/03 08:18:48;;;;;;;10.82;8.90;;;24.20;99.90;;;25.76;73.30;99564.41;5060771;27;130063;-72
2022/07/03 08:21:16;;;;;;;11.48;8.38;;;24.00;99.90;;;25.38;74.79;99567.94;5060419;27;119306;-75
2022/07/03 08:23:46;;;;;;;14.45;8.15;;;23.80;99.90;;;26.01;71.79;99569.72;5061337;27;119815;-76
2022/07/03 08:26:15;;;;;;;14.32;8.27;;;23.90;99.90;;;25.45;74.16;99569.88;5060187;27;130153;-71
2022/07/03 08:28:44;;;;;;;10.52;7.90;;;23.60;99.90;;;25.96;72.42;99572.91;5058857;27;129459;-76
2022/07/03 08:31:12;;;;;;;10.93;8.38;;;24.10;99.90;;;25.84;70.40;99571.47;5059021;27;122184;-76
2022/07/03 08:33:41;;;;;;;11.00;8.20;;;23.80;99.90;;;25.87;71.32;99580.94;5060790;27;122104;-74
2022/07/03 08:36:09;;;;;;;10.90;8.10;;;24.00;99.90;;;27.16;67.41;99576.47;5060438;27;130112;-76
2022/07/03 08:38:38;;;;;;;9.93;8.18;;;25.00;99.90;;;26.94;66.81;99578.03;5059454;27;129584;-73
2022/07/03 08:41:09;;;;;;;9.93;8.85;;;24.90;99.90;;;27.24;64.95;99586.28;5059228;27;119633;-75
2022/07/03 08:43:40;;;;;;;11.25;8.15;;;24.20;99.90;;;27.60;64.44;99580.13;5060316;27;119278;-73
2022/07/03 08:46:11;;;;;;;9.27;7.32;;;24.30;99.90;;;27.83;63.07;99581.31;5060134;27;129725;-74
2022/07/03 08:48:41;;;;;;;10.73;8.10;;;24.90;99.90;;;27.25;64.59;99584.28;5060487;27;129523;-73
2022/07/03 08:51:11;;;;;;;11.45;7.72;;;24.80;99.90;;;26.36;69.34;99576.78;5058625;27;119885;-75
2022/07/03 08:53:40;;;;;;;9.93;7.93;;;24.40;99.90;;;26.60;67.69;99571.34;5061771;27;119639;-73
2022/07/03 08:56:11;;;;;;;10.05;8.55;;;24.60;99.90;;;26.14;69.50;99567.94;5062596;27;130486;-72
2022/07/03 08:58:41;;;;;;;9.70;8.25;;;24.30;99.90;;;26.99;67.05;99574.75;5063514;27;129543;-76
2022/07/03 09:01:10;;;;;;;13.07;8.25;;;24.80;99.90;;;25.91;70.23;99571.34;5066338;27;120194;-76
2022/07/03 09:03:40;;;;;;;9.90;8.43;;;24.00;99.90;;;25.78;71.59;99568.31;5062223;27;119116;-75
2022/07/03 09:06:09;;;;;;;10.50;8.15;;;24.00;99.90;;;25.98;70.59;99560.19;5063443;27;130069;-72
2022/07/03 09:08:38;;;;;;;12.32;8.40;;;24.20;99.90;;;25.96;71.02;99561.78;5063440;27;129613;-76
2022/07/03 09:11:08;;;;;;;10.95;8.10;;;24.20;99.90;;;26.07;70.53;99561.69;5063059;27;120482;-75
2022/07/03 09:13:38;;;;;;;12.23;8.07;;;24.20;99.90;;;26.80;66.91;99556.75;5063615;27;119411;-75
2022/07/03 09:16:14;;;;;;;11.10;7.45;;;24.40;99.90;;;26.49;68.98;99551.19;5061938;27;130131;-72
2022/07/03 09:18:45;;;;;;;11.90;8.80;;;24.50;99.90;;;26.97;66.03;99554.91;5065209;27;129337;-74
2022/07/03 09:21:14;;;;;;;11.05;7.60;;;24.20;99.90;;;26.63;67.31;99541.84;5062070;27;122499;-74
2022/07/03 09:23:45;;;;;;;10.40;8.13;;;24.30;99.90;;;26.39;68.86;99544.59;5065526;27;120452;-73
2022/07/03 09:26:16;;;;;;;10.90;7.47;;;24.60;99.90;;;26.01;68.47;99550.25;5062124;27;129997;-76
2022/07/03 09:28:52;;;;;;;8.85;7.65;;;24.50;99.90;;;26.49;67.72;99546.44;5062759;27;129690;-76
2022/07/03 09:31:22;;;;;;;9.75;7.50;;;24.70;99.90;;;26.84;65.82;99547.13;5065143;27;119240;-77
2022/07/03 09:33:59;;;;;;;11.30;8.40;;;25.00;99.90;;;26.73;65.37;99552.88;5065030;27;118143;-76
2022/07/03 09:36:43;;;;;;;9.40;8.18;;;25.00;99.90;;;27.06;64.55;99549.59;5062821;27;129912;-75
2022/07/03 09:39:25;;;;;;;10.77;8.40;;;25.30;99.90;;;27.59;62.35;99544.31;5061794;27;130853;-75
2022/07/03 09:41:58;;;;;;;9.98;8.20;;;25.50;99.90;;;26.95;64.70;99540.63;5062608;27;119619;-76
2022/07/03 09:44:34;;;;;;;10.45;7.72;;;25.20;99.90;;;27.22;62.84;99544.16;5063292;27;119270;-76
2022/07/03 09:47:11;;;;;;;9.73;7.80;;;25.20;99.90;;;27.62;62.32;99535.88;5061452;27;129926;-76
2022/07/03 09:49:49;;;;;;;12.93;8.23;;;25.40;99.90;;;27.55;62.29;99538.00;5062164;27;130022;-76
2022/07/03 09:52:36;;;;;;;10.35;8.40;;;25.50;99.90;;;28.04;60.49;99529.13;5062082;27;120099;-75
2022/07/03 09:55:18;;;;;;;10.52;8.05;;;25.60;99.90;;;27.74;61.50;99522.53;5062928;27;119340;-75
2022/07/03 09:58:01;;;;;;;9.73;8.05;;;25.30;99.90;;;27.87;61.01;99525.47;5062963;27;129929;-75
2022/07/03 10:00:33;;;;;;;10.20;7.97;;;25.50;99.90;;;28.06;59.69;99518.31;5064271;27;129966;-75
2022/07/03 10:03:04;;;;;;;9.38;8.02;;;25.70;99.90;;;28.29;58.40;99529.38;5060899;27;120056;-75
2022/07/03 10:05:34;;;;;;;11.57;8.18;;;25.80;99.90;;;27.34;61.64;99523.25;5063318;27;119324;-71
2022/07/03 10:08:05;;;;;;;11.63;7.60;;;25.60;99.90;;;27.95;60.44;99515.75;5062382;27;130399;-75
2022/07/03 10:10:36;;;;;;;10.00;7.38;;;26.20;99.90;;;28.38;58.32;99519.66;5061980;27;129290;-74
2022/07/03 10:13:05;;;;;;;10.05;7.47;;;26.20;99.90;;;28.89;57.02;99519.28;5060780;27;122136;-74
2022/07/03 10:15:38;;;;;;;11.73;7.50;;;26.70;99.90;;;29.08;56.70;99514.81;5061491;27;122008;-74
2022/07/03 10:18:09;;;;;;;8.63;7.43;;;26.70;99.90;;;29.45;56.13;99518.25;5062483;27;129821;-76
2022/07/03 10:20:45;;;;;;;10.88;7.78;;;27.20;99.90;;;29.76;53.57;99521.41;5062145;27;129679;-74
2022/07/03 10:23:17;;;;;;;10.15;7.53;;;27.40;99.90;;;29.37;54.71;99526.06;5062809;27;119440;-74
2022/07/03 10:25:47;;;;;;;10.02;7.53;;;27.00;99.90;;;29.09;55.26;99519.94;5061428;27;119890;-73
2022/07/03 10:28:19;;;;;;;9.57;7.07;;;26.90;99.90;;;29.48;54.80;99520.19;5062052;27;131238;-74
2022/07/03 10:30:49;;;;;;;11.07;7.97;;;27.00;99.90;;;29.47;55.23;99513.81;5062191;27;129902;-73
2022/07/03 10:33:18;;;;;;;9.68;7.72;;;27.20;99.90;;;29.35;54.87;99512.53;5063528;27;119645;-75